createdAt,value
2018-07-08T00:01:53.654Z,4.80
2018-07-08T00:04:24.520Z,4.93
2018-07-08T00:06:58.366Z,5.13
2018-07-08T00:09:29.266Z,5.00
2018-07-08T00:12:00.070Z,5.83
2018-07-08T00:14:31.141Z,5.43
2018-07-08T00:17:02.100Z,5.00
2018-07-08T00:19:33.183Z,5.40
2018-07-08T00:22:04.148Z,5.43
2018-07-08T00:24:35.186Z,5.20
2018-07-08T00:27:06.172Z,5.17
2018-07-08T00:29:37.064Z,5.50
2018-07-08T00:32:08.275Z,5.03
2018-07-08T00:34:39.246Z,5.27
2018-07-08T00:37:10.440Z,5.37
2018-07-08T00:39:41.335Z,5.30
2018-07-08T00:42:12.360Z,5.17
2018-07-08T00:44:43.661Z,4.90
2018-07-08T00:47:14.854Z,4.93
2018-07-08T00:49:45.807Z,5.37
2018-07-08T00:52:16.992Z,4.87
2018-07-08T00:54:47.811Z,5.73
2018-07-08T00:57:18.862Z,4.97
2018-07-08T00:59:49.965Z,5.10
2018-07-08T01:02:21.111Z,4.83
2018-07-08T01:04:52.314Z,4.90
2018-07-08T01:07:23.453Z,4.90
2018-07-08T01:09:54.336Z,4.90
2018-07-08T01:12:25.273Z,5.00
2018-07-08T01:14:56.375Z,4.83
2018-07-08T01:17:27.551Z,4.90
2018-07-08T01:19:58.739Z,4.90
2018-07-08T01:22:29.701Z,5.40
2018-07-08T01:25:10.213Z,5.10
2018-07-08T01:27:41.523Z,5.50
2018-07-08T01:30:13.793Z,5.97
2018-07-08T01:32:45.165Z,5.40
2018-07-08T01:35:16.215Z,5.67
2018-07-08T01:37:47.099Z,6.40
2018-07-08T01:40:18.254Z,5.90
2018-07-08T01:42:49.475Z,5.90
2018-07-08T01:45:20.540Z,6.57
2018-07-08T01:47:51.779Z,6.07
2018-07-08T01:50:22.655Z,5.73
2018-07-08T01:52:53.767Z,5.87
2018-07-08T01:55:24.865Z,6.20
2018-07-08T01:57:55.960Z,5.80
2018-07-08T02:00:27.347Z,6.30
2018-07-08T02:02:58.375Z,6.30
2018-07-08T02:05:29.388Z,5.37
2018-07-08T02:08:00.761Z,5.60
2018-07-08T02:10:31.750Z,5.53
2018-07-08T02:13:02.907Z,5.87
2018-07-08T02:15:33.803Z,5.60
2018-07-08T02:18:04.789Z,5.40
2018-07-08T02:20:35.723Z,5.40
2018-07-08T02:23:06.909Z,5.00
2018-07-08T02:25:37.864Z,5.07
2018-07-08T02:28:08.907Z,4.93
2018-07-08T02:30:40.260Z,5.40
2018-07-08T02:33:11.364Z,4.87
2018-07-08T02:35:42.231Z,5.00
2018-07-08T02:38:14.351Z,4.90
2018-07-08T02:40:45.192Z,4.67
2018-07-08T02:43:16.194Z,4.80
2018-07-08T02:45:47.304Z,4.67
2018-07-08T02:48:18.410Z,4.97
2018-07-08T02:50:49.724Z,4.67
2018-07-08T02:53:20.785Z,5.20
2018-07-08T02:55:51.857Z,5.27
2018-07-08T02:58:23.001Z,5.43
2018-07-08T03:00:54.064Z,5.50
2018-07-08T03:03:25.016Z,5.33
2018-07-08T03:05:56.111Z,5.00
2018-07-08T03:08:27.279Z,4.90
2018-07-08T03:10:58.352Z,5.00
2018-07-08T03:13:29.448Z,4.87
2018-07-08T03:16:00.425Z,5.30
2018-07-08T03:18:30.867Z,5.20
2018-07-08T03:21:01.751Z,4.63
2018-07-08T03:23:32.832Z,5.10
2018-07-08T03:26:03.850Z,5.37
2018-07-08T03:28:34.816Z,5.40
2018-07-08T03:31:05.842Z,4.70
2018-07-08T03:33:36.970Z,5.10
2018-07-08T03:36:08.153Z,5.00
2018-07-08T03:38:38.987Z,4.77
2018-07-08T03:41:09.892Z,4.87
2018-07-08T03:43:41.106Z,5.20
2018-07-08T03:46:12.361Z,4.67
2018-07-08T03:48:43.531Z,4.67
2018-07-08T03:51:14.489Z,4.60
2018-07-08T03:53:45.528Z,4.77
2018-07-08T03:56:16.370Z,4.90
2018-07-08T03:58:47.371Z,4.60
2018-07-08T04:01:18.331Z,4.87
2018-07-08T04:03:49.300Z,5.17
2018-07-08T04:06:20.377Z,4.43
2018-07-08T04:08:51.383Z,5.00
2018-07-08T04:11:22.239Z,5.70
2018-07-08T04:13:53.695Z,5.57
2018-07-08T04:16:24.779Z,5.30
2018-07-08T04:18:55.622Z,4.87
2018-07-08T04:21:26.575Z,4.70
2018-07-08T04:23:57.701Z,4.63
2018-07-08T04:26:28.735Z,4.90
2018-07-08T04:28:59.798Z,4.50
2018-07-08T04:31:30.546Z,4.60
2018-07-08T04:34:01.531Z,5.00
2018-07-08T04:36:32.285Z,4.60
2018-07-08T04:39:03.203Z,5.03
2018-07-08T04:41:33.992Z,5.00
2018-07-08T04:44:05.031Z,4.67
2018-07-08T04:46:35.803Z,4.50
2018-07-08T04:49:06.654Z,4.70
2018-07-08T04:51:37.595Z,4.70
2018-07-08T04:54:08.789Z,4.63
2018-07-08T04:56:39.572Z,4.70
2018-07-08T04:59:10.236Z,4.30
2018-07-08T05:01:41.272Z,4.60
2018-07-08T05:04:12.081Z,4.53
2018-07-08T05:06:42.856Z,4.67
2018-07-08T05:09:13.683Z,4.63
2018-07-08T05:11:44.416Z,4.60
2018-07-08T05:14:15.341Z,4.60
2018-07-08T05:16:46.090Z,4.60
2018-07-08T05:19:16.782Z,4.90
2018-07-08T05:21:47.558Z,4.60
2018-07-08T05:24:18.386Z,4.47
2018-07-08T05:26:49.216Z,3.97
2018-07-08T05:29:19.979Z,4.27
2018-07-08T05:31:50.874Z,4.20
2018-07-08T05:34:21.652Z,4.00
2018-07-08T05:36:52.479Z,4.10
2018-07-08T05:39:23.205Z,4.10
2018-07-08T05:41:53.988Z,3.80
2018-07-08T05:44:24.760Z,4.00
2018-07-08T05:46:55.530Z,3.80
2018-07-08T05:49:26.312Z,3.87
2018-07-08T05:51:57.162Z,3.83
2018-07-08T05:54:27.876Z,3.90
2018-07-08T05:56:58.538Z,3.67
2018-07-08T05:59:29.363Z,3.50
2018-07-08T06:02:00.336Z,3.83
2018-07-08T06:04:31.120Z,3.60
2018-07-08T06:07:01.899Z,3.80
2018-07-08T06:09:32.705Z,3.90
2018-07-08T06:12:03.835Z,3.47
2018-07-08T06:14:34.680Z,3.30
2018-07-08T06:17:05.554Z,3.67
2018-07-08T06:19:36.301Z,3.60
2018-07-08T06:22:07.184Z,3.13
2018-07-08T06:24:37.950Z,3.70
2018-07-08T06:27:08.749Z,3.50
2018-07-08T06:29:39.555Z,3.60
2018-07-08T06:32:10.266Z,3.40
2018-07-08T06:34:41.067Z,3.30
2018-07-08T06:37:11.845Z,3.53
2018-07-08T06:39:42.588Z,3.67
2018-07-08T06:42:13.314Z,3.87
2018-07-08T06:44:44.157Z,3.80
2018-07-08T06:47:14.988Z,3.70
2018-07-08T06:49:45.921Z,4.10
2018-07-08T06:52:17.123Z,3.60
2018-07-08T06:54:47.872Z,4.00
2018-07-08T06:57:18.822Z,3.53
2018-07-08T06:59:49.720Z,3.70
2018-07-08T07:02:20.985Z,3.40
2018-07-08T07:04:52.067Z,3.33
2018-07-08T07:07:22.685Z,3.63
2018-07-08T07:09:53.688Z,3.10
2018-07-08T07:12:24.426Z,3.40
2018-07-08T07:14:55.205Z,3.37
2018-07-08T07:17:26.013Z,3.50
2018-07-08T07:19:57.181Z,3.40
2018-07-08T07:22:27.951Z,3.30
2018-07-08T07:24:59.034Z,3.50
2018-07-08T07:27:29.853Z,3.33
2018-07-08T07:30:00.540Z,3.80
2018-07-08T07:32:31.343Z,3.20
2018-07-08T07:35:02.478Z,3.53
2018-07-08T07:37:33.235Z,3.53
2018-07-08T07:40:04.092Z,3.50
2018-07-08T07:42:34.917Z,3.20
2018-07-08T07:45:06.470Z,3.27
2018-07-08T07:47:37.407Z,3.33
2018-07-08T07:50:08.548Z,2.97
2018-07-08T07:52:39.475Z,3.40
2018-07-08T07:55:10.375Z,3.53
2018-07-08T07:57:41.123Z,3.27
2018-07-08T08:00:12.033Z,3.00
2018-07-08T08:02:42.791Z,2.90
2018-07-08T08:05:13.468Z,3.50
2018-07-08T08:07:44.164Z,2.77
2018-07-08T08:10:14.889Z,2.73
2018-07-08T08:12:45.878Z,2.70
2018-07-08T08:15:16.642Z,2.83
2018-07-08T08:17:47.393Z,3.40
2018-07-08T08:20:18.211Z,2.30
2018-07-08T08:22:49.015Z,2.20
2018-07-08T08:25:19.959Z,2.10
2018-07-08T08:27:50.882Z,2.13
2018-07-08T08:30:21.892Z,2.10
2018-07-08T08:32:52.658Z,2.17
2018-07-08T08:35:23.614Z,2.13
2018-07-08T08:37:56.656Z,1.90
2018-07-08T08:40:28.631Z,2.03
2018-07-08T08:42:59.506Z,1.80
2018-07-08T08:45:30.649Z,1.97
2018-07-08T08:48:01.438Z,2.00
2018-07-08T08:50:32.139Z,2.03
2018-07-08T08:53:03.052Z,2.20
2018-07-08T08:55:34.251Z,2.20
2018-07-08T08:58:04.967Z,2.30
2018-07-08T09:00:36.511Z,2.30
2018-07-08T09:03:07.604Z,1.93
2018-07-08T09:05:38.333Z,2.10
2018-07-08T09:08:09.360Z,2.20
2018-07-08T09:10:40.146Z,2.00
2018-07-08T09:13:11.177Z,1.93
2018-07-08T09:15:41.991Z,2.17
2018-07-08T09:18:12.800Z,1.90
2018-07-08T09:20:43.560Z,2.20
2018-07-08T09:23:14.529Z,2.00
2018-07-08T09:25:45.456Z,2.03
2018-07-08T09:28:16.480Z,2.10
2018-07-08T09:30:47.694Z,1.93
2018-07-08T09:33:18.671Z,1.50
2018-07-08T09:35:49.377Z,1.30
2018-07-08T09:38:20.348Z,1.20
2018-07-08T09:40:51.061Z,1.30
2018-07-08T09:43:21.885Z,1.00
2018-07-08T09:45:52.790Z,1.30
2018-07-08T09:48:23.636Z,1.03
2018-07-08T09:50:54.584Z,1.17
2018-07-08T09:53:25.470Z,1.00
2018-07-08T09:55:56.220Z,1.10
2018-07-08T09:58:27.007Z,1.20
2018-07-08T10:01:01.324Z,0.90
2018-07-08T10:03:33.995Z,1.00
2018-07-08T10:06:05.838Z,0.80
2018-07-08T10:08:37.174Z,1.10
2018-07-08T10:11:08.371Z,0.80
2018-07-08T10:13:39.224Z,1.00
2018-07-08T10:16:10.032Z,0.90
2018-07-08T10:18:40.777Z,1.10
2018-07-08T10:21:11.590Z,1.13
2018-07-08T10:23:42.387Z,1.00
2018-07-08T10:26:13.252Z,1.10
2018-07-08T10:28:44.076Z,1.33
2018-07-08T10:31:15.335Z,1.30
2018-07-08T10:34:01.766Z,1.17
2018-07-08T10:36:32.595Z,1.10
2018-07-08T10:39:03.516Z,1.20
2018-07-08T10:41:34.288Z,1.10
2018-07-08T10:44:05.083Z,0.90
2018-07-08T10:46:35.827Z,0.70
2018-07-08T10:49:06.713Z,0.87
2018-07-08T10:51:36.936Z,1.20
2018-07-08T10:54:07.846Z,0.70
2018-07-08T10:56:38.635Z,0.83
2018-07-08T10:59:09.470Z,0.60
2018-07-08T11:01:40.301Z,0.90
2018-07-08T11:04:11.168Z,0.70
2018-07-08T11:06:41.945Z,0.80
2018-07-08T11:09:12.877Z,0.90
2018-07-08T11:11:43.665Z,0.70
2018-07-08T11:14:14.459Z,0.70
2018-07-08T11:16:45.306Z,0.90
2018-07-08T11:19:16.147Z,0.87
2018-07-08T11:21:46.888Z,0.80
2018-07-08T11:24:17.699Z,0.70
2018-07-08T11:26:48.335Z,0.90
2018-07-08T11:29:19.260Z,0.87
2018-07-08T11:31:50.053Z,0.90
2018-07-08T11:34:20.932Z,0.90
2018-07-08T11:36:51.659Z,0.93
2018-07-08T11:39:22.451Z,0.90
2018-07-08T11:41:53.431Z,0.90
2018-07-08T11:44:24.180Z,1.10
2018-07-08T11:46:54.983Z,0.90
2018-07-08T11:49:25.803Z,0.80
2018-07-08T11:51:56.529Z,0.90
2018-07-08T11:54:27.711Z,0.97
2018-07-08T11:56:59.068Z,0.97
2018-07-08T11:59:29.829Z,1.10
2018-07-08T12:02:00.529Z,0.93
2018-07-08T12:04:31.589Z,0.90
2018-07-08T12:07:02.326Z,0.90
2018-07-08T12:09:33.295Z,1.00
2018-07-08T12:12:04.116Z,0.80
2018-07-08T12:14:35.247Z,1.00
2018-07-08T12:17:06.606Z,1.00
2018-07-08T12:19:37.894Z,0.90
2018-07-08T12:22:08.666Z,0.90
2018-07-08T12:24:39.526Z,1.00
2018-07-08T12:27:10.451Z,0.80
2018-07-08T12:29:41.272Z,1.10
2018-07-08T12:32:12.007Z,1.00
2018-07-08T12:34:42.859Z,1.17
2018-07-08T12:37:13.592Z,0.97
2018-07-08T12:39:44.519Z,1.00
2018-07-08T12:42:15.257Z,0.90
2018-07-08T12:44:46.173Z,0.90
2018-07-08T12:47:29.587Z,1.00
2018-07-08T12:50:15.566Z,1.00
2018-07-08T12:56:05.564Z,1.00
2018-07-08T12:58:46.013Z,1.00
2018-07-08T13:01:25.439Z,0.90
2018-07-08T13:04:05.613Z,0.90
2018-07-08T13:06:42.800Z,0.97
2018-07-08T13:09:14.883Z,1.00
2018-07-08T13:11:57.166Z,1.03
2018-07-08T13:14:46.397Z,0.90
2018-07-08T13:17:17.197Z,1.00
2018-07-08T13:19:47.994Z,0.95
2018-07-08T13:22:18.773Z,1.10
2018-07-08T13:24:49.515Z,1.00
2018-07-08T13:27:20.230Z,1.10
2018-07-08T13:29:51.092Z,1.30
2018-07-08T13:32:21.938Z,1.12
2018-07-08T13:34:52.754Z,1.10
2018-07-08T13:37:23.585Z,1.20
2018-07-08T13:39:54.425Z,1.20
2018-07-08T13:42:25.152Z,1.20
2018-07-08T13:44:56.130Z,1.22
2018-07-08T13:47:26.903Z,1.30
2018-07-08T13:53:33.147Z,1.27
2018-07-08T13:59:27.860Z,1.30
2018-07-08T14:01:57.927Z,1.50
2018-07-08T14:04:28.732Z,1.30
2018-07-08T14:07:05.004Z,1.53
2018-07-08T14:09:49.160Z,1.42
2018-07-08T14:12:19.928Z,1.20
2018-07-08T14:14:50.771Z,1.40
2018-07-08T14:17:21.714Z,1.20
2018-07-08T14:19:52.445Z,1.30
2018-07-08T14:22:23.226Z,1.40
2018-07-08T14:24:53.994Z,1.43
2018-07-08T14:27:24.791Z,1.50
2018-07-08T14:29:55.511Z,1.40
2018-07-08T14:32:42.436Z,1.67
2018-07-08T14:35:13.223Z,1.50
2018-07-08T14:37:43.981Z,1.50
2018-07-08T14:40:14.910Z,1.42
2018-07-08T14:42:45.852Z,1.40
2018-07-08T14:45:16.608Z,1.47
2018-07-08T14:48:00.117Z,1.80
2018-07-08T14:50:30.910Z,1.40
2018-07-08T14:53:01.652Z,1.40
2018-07-08T14:55:32.428Z,1.32
2018-07-08T14:58:03.275Z,1.20
2018-07-08T15:00:34.048Z,1.35
2018-07-08T15:03:04.768Z,1.45
2018-07-08T15:05:35.599Z,1.30
2018-07-08T15:08:06.643Z,1.40
2018-07-08T15:10:37.466Z,1.47
2018-07-08T15:13:08.327Z,1.50
2018-07-08T15:15:39.105Z,1.40
2018-07-08T15:21:34.733Z,1.30
2018-07-08T15:24:05.477Z,1.40
2018-07-08T15:26:36.348Z,1.30
2018-07-08T15:29:07.052Z,1.50
2018-07-08T15:31:38.362Z,1.40
2018-07-08T15:34:09.131Z,1.50
2018-07-08T15:36:39.774Z,1.55
2018-07-08T15:39:10.931Z,1.37
2018-07-08T15:41:41.832Z,1.37
2018-07-08T15:44:12.607Z,1.40
2018-07-08T15:46:43.539Z,1.12
2018-07-08T15:49:14.375Z,1.40
2018-07-08T15:51:45.313Z,1.42
2018-07-08T15:54:16.087Z,1.20
2018-07-08T15:56:47.013Z,1.20
2018-07-08T15:59:17.762Z,1.25
2018-07-08T16:01:48.445Z,1.42
2018-07-08T16:04:19.251Z,1.10
2018-07-08T16:06:49.859Z,1.20
2018-07-08T16:09:20.700Z,1.30
2018-07-08T16:11:51.637Z,1.35
2018-07-08T16:14:22.401Z,1.37
2018-07-08T16:16:53.371Z,1.40
2018-07-08T16:22:22.380Z,1.55
2018-07-08T16:24:53.218Z,1.57
2018-07-08T16:27:23.996Z,1.55
2018-07-08T16:29:55.441Z,1.35
2018-07-08T16:32:26.374Z,1.35
2018-07-08T16:34:57.319Z,1.45
2018-07-08T16:37:28.208Z,1.47
2018-07-08T16:39:59.148Z,1.57
2018-07-08T16:42:29.948Z,1.60
2018-07-08T16:45:18.231Z,1.40
2018-07-08T16:47:49.227Z,1.40
2018-07-08T16:50:20.099Z,1.65
2018-07-08T16:52:50.840Z,1.70
2018-07-08T16:58:20.880Z,1.70
2018-07-08T17:06:48.320Z,1.82
2018-07-08T17:09:23.130Z,1.80
2018-07-08T17:11:59.295Z,1.98
2018-07-08T17:14:43.217Z,1.90
2018-07-08T17:26:21.449Z,2.60
2018-07-08T17:28:52.826Z,2.30
2018-07-08T17:31:23.875Z,2.83
2018-07-08T17:33:54.711Z,2.80
2018-07-08T17:36:26.050Z,2.83
2018-07-08T17:38:57.199Z,2.67
2018-07-08T17:41:28.055Z,2.50
2018-07-08T17:43:58.915Z,2.77
2018-07-08T17:46:29.844Z,2.50
2018-07-08T17:49:07.431Z,2.93
2018-07-08T17:51:56.377Z,2.60
2018-07-08T17:54:27.192Z,2.73
2018-07-08T17:56:58.239Z,2.60
2018-07-08T17:59:29.084Z,3.20
2018-07-08T18:01:59.903Z,3.20
2018-07-08T18:04:30.784Z,3.33
2018-07-08T18:07:01.760Z,2.97
2018-07-08T18:09:32.523Z,3.23
2018-07-08T18:14:57.450Z,3.10
2018-07-08T18:17:28.152Z,3.27
2018-07-08T18:19:59.019Z,3.00
2018-07-08T18:25:42.512Z,3.20
2018-07-08T18:31:12.166Z,3.30
2018-07-08T18:36:53.681Z,3.30
2018-07-08T18:39:24.607Z,2.90
2018-07-08T18:41:59.915Z,3.47
2018-07-08T18:44:30.649Z,3.10
2018-07-08T18:47:01.444Z,3.80
2018-07-08T18:49:32.231Z,3.07
2018-07-08T18:52:03.040Z,3.40
2018-07-08T18:57:28.248Z,3.30
2018-07-08T18:59:59.289Z,3.77
2018-07-08T19:02:30.092Z,3.50
2018-07-08T19:05:01.273Z,3.73
2018-07-08T19:07:32.416Z,3.50
2018-07-08T19:10:03.526Z,3.50
2018-07-08T19:12:34.396Z,3.80
2018-07-08T19:15:05.115Z,3.40
2018-07-08T19:17:35.919Z,3.50
2018-07-08T19:26:38.308Z,3.83
2018-07-08T19:29:09.133Z,3.70
2018-07-08T19:31:40.576Z,3.60
2018-07-08T19:34:11.306Z,3.83
2018-07-08T19:36:42.273Z,3.70
2018-07-08T19:39:13.042Z,3.87
2018-07-08T19:41:43.641Z,3.57
2018-07-08T19:44:14.346Z,3.90
2018-07-08T19:46:45.118Z,4.20
2018-07-08T19:49:35.827Z,4.00
2018-07-08T19:52:06.563Z,3.70
2018-07-08T19:54:37.276Z,3.97
2018-07-08T19:57:08.084Z,3.60
2018-07-08T19:59:38.709Z,3.80
2018-07-08T20:02:09.390Z,4.23
2018-07-08T20:04:40.072Z,3.80
2018-07-08T20:07:18.666Z,4.07
2018-07-08T20:09:50.252Z,3.77
2018-07-08T20:12:21.171Z,3.93
2018-07-08T20:15:11.292Z,3.77
2018-07-08T20:17:42.058Z,3.90
2018-07-08T20:20:15.923Z,3.73
2018-07-08T20:22:46.954Z,3.67
2018-07-08T20:25:18.609Z,3.70
2018-07-08T20:27:50.443Z,3.90
2018-07-08T20:30:33.697Z,3.93
2018-07-08T20:33:14.198Z,4.10
2018-07-08T20:35:45.020Z,4.10
2018-07-08T20:38:15.760Z,4.00
2018-07-08T20:40:46.573Z,4.40
2018-07-08T20:43:17.539Z,4.27
2018-07-08T20:45:48.314Z,4.47
2018-07-08T20:48:23.146Z,4.20
2018-07-08T20:50:54.250Z,4.30
2018-07-08T20:53:25.362Z,3.97
2018-07-08T20:55:56.355Z,4.40
2018-07-08T20:58:27.630Z,4.30
2018-07-08T21:00:58.423Z,4.37
2018-07-08T21:03:29.883Z,4.17
2018-07-08T21:06:01.151Z,4.50
2018-07-08T21:08:32.147Z,4.20
2018-07-08T21:11:02.995Z,4.50
2018-07-08T21:13:34.052Z,4.50
2018-07-08T21:16:05.247Z,4.07
2018-07-08T21:18:36.279Z,4.43
2018-07-08T21:21:07.523Z,4.37
2018-07-08T21:23:38.767Z,4.50
2018-07-08T21:26:10.103Z,4.20
2018-07-08T21:28:41.315Z,4.77
2018-07-08T21:31:12.746Z,4.40
2018-07-08T21:33:43.906Z,3.97
2018-07-08T21:36:14.903Z,4.17
2018-07-08T21:38:45.975Z,4.20
2018-07-08T21:41:17.044Z,4.13
2018-07-08T21:43:47.804Z,4.50
2018-07-08T21:46:31.394Z,4.23
2018-07-08T21:49:02.582Z,4.43
2018-07-08T21:51:34.040Z,4.00
2018-07-08T21:54:05.184Z,3.97
2018-07-08T21:56:50.149Z,4.50
2018-07-08T21:59:21.241Z,4.78
2018-07-08T22:02:06.920Z,4.87
2018-07-08T22:04:37.636Z,4.73
2018-07-08T22:07:13.290Z,4.37
2018-07-08T22:09:44.015Z,4.83
2018-07-08T22:12:14.637Z,4.77
2018-07-08T22:14:45.360Z,4.77
2018-07-08T22:17:16.069Z,4.77
2018-07-08T22:19:46.728Z,4.43
2018-07-08T22:22:17.502Z,4.70
2018-07-08T22:24:48.134Z,4.70
2018-07-08T22:27:18.712Z,4.40
2018-07-08T22:29:49.402Z,4.80
2018-07-08T22:32:20.135Z,5.07
2018-07-08T22:34:51.008Z,5.30
2018-07-08T22:37:21.757Z,5.00
2018-07-08T22:39:52.637Z,5.00
2018-07-08T22:42:23.267Z,5.13
2018-07-08T22:44:53.956Z,5.47
2018-07-08T22:47:24.847Z,5.37
2018-07-08T22:49:55.549Z,5.37
2018-07-08T22:52:26.219Z,5.47
2018-07-08T22:54:56.908Z,5.20
2018-07-08T22:57:27.736Z,5.20
2018-07-08T23:00:11.928Z,5.30
2018-07-08T23:02:44.776Z,5.27
2018-07-08T23:05:16.027Z,5.57
2018-07-08T23:07:46.699Z,5.67
2018-07-08T23:10:17.386Z,5.60
2018-07-08T23:12:48.099Z,5.30
2018-07-08T23:15:18.887Z,5.33
2018-07-08T23:17:49.585Z,5.43
2018-07-08T23:20:21.187Z,5.93
2018-07-08T23:23:00.067Z,5.43
2018-07-08T23:25:30.814Z,6.07
2018-07-08T23:28:01.582Z,5.60
2018-07-08T23:30:32.259Z,5.40
2018-07-08T23:33:03.444Z,5.87
2018-07-08T23:35:34.140Z,5.43
2018-07-08T23:38:05.073Z,5.90
2018-07-08T23:40:35.781Z,5.40
2018-07-08T23:43:06.855Z,6.17
2018-07-08T23:45:37.552Z,6.13
2018-07-08T23:48:08.264Z,5.97
2018-07-08T23:50:39.025Z,5.83
2018-07-08T23:53:09.716Z,6.00
2018-07-08T23:55:40.431Z,6.40
2018-07-08T23:58:11.218Z,6.40
